Time;durP1;ratioP1;P1;durP2;ratioP2;P2;SDS_P1;SDS_P2;PMS_P1;PMS_P2;Temp;Humidity;BMP_temperature;BMP_pressure;BME280_temperature;BME280_humidity;BME280_pressure;Samples;Min_cycle;Max_cycle;Signal;HPM_P1;HPM_P2
2023/06/24 00:01:28;;;;;;;0.47;0.32;;;13.60;99.90;;;;;;5047094;28;20119;-76
2023/06/24 00:03:54;;;;;;;0.52;0.52;;;13.60;99.90;;;;;;5046930;28;20051;-76
2023/06/24 00:06:22;;;;;;;12.73;0.70;;;13.50;99.90;;;;;;5046797;28;20124;-76
2023/06/24 00:08:50;;;;;;;0.28;0.28;;;13.50;99.90;;;;;;5046949;28;20056;-76
2023/06/24 00:11:16;;;;;;;1.08;0.73;;;13.40;99.90;;;;;;5045937;28;20053;-76
2023/06/24 00:13:42;;;;;;;0.25;0.25;;;13.40;99.90;;;;;;5047096;28;20444;-76
2023/06/24 00:16:09;;;;;;;0.50;0.50;;;13.40;99.90;;;;;;5046702;28;20036;-76
2023/06/24 00:18:36;;;;;;;0.22;0.22;;;13.30;99.90;;;;;;5046473;28;20053;-76
2023/06/24 00:21:02;;;;;;;0.38;0.38;;;13.10;99.90;;;;;;5047036;28;20060;-75
2023/06/24 00:23:30;;;;;;;0.38;0.20;;;13.10;99.90;;;;;;5047107;28;20491;-75
2023/06/24 00:25:56;;;;;;;0.75;0.35;;;13.00;99.90;;;;;;5046828;28;20040;-75
2023/06/24 00:28:22;;;;;;;0.45;0.10;;;13.00;99.90;;;;;;5046469;28;20486;-75
2023/06/24 00:30:49;;;;;;;0.75;0.75;;;12.90;99.90;;;;;;5046678;28;20044;-75
2023/06/24 00:33:14;;;;;;;0.43;0.32;;;12.90;99.90;;;;;;5046943;28;20419;-75
2023/06/24 00:35:41;;;;;;;1.83;0.93;;;12.90;99.90;;;;;;5046365;28;20051;-75
2023/06/24 00:38:06;;;;;;;4.63;1.23;;;12.90;99.90;;;;;;5045932;28;20569;-75
2023/06/24 00:40:33;;;;;;;1.20;1.10;;;13.00;99.90;;;;;;5046126;28;20124;-75
2023/06/24 00:43:01;;;;;;;0.35;0.22;;;13.10;99.90;;;;;;5045889;28;20056;-75
2023/06/24 00:45:27;;;;;;;1.95;0.30;;;13.00;99.90;;;;;;5045558;28;20330;-75
2023/06/24 00:47:55;;;;;;;0.35;0.35;;;13.30;99.90;;;;;;5045277;28;20120;-75
2023/06/24 00:50:22;;;;;;;0.93;0.55;;;13.10;99.90;;;;;;5046509;28;20057;-75
2023/06/24 00:52:49;;;;;;;0.52;0.47;;;13.10;82.90;;;;;;5045969;28;20049;-75
2023/06/24 00:55:16;;;;;;;3.28;1.27;;;13.10;99.90;;;;;;5045866;28;20049;-75
2023/06/24 00:57:43;;;;;;;0.32;0.25;;;13.00;86.50;;;;;;5045707;28;20053;-75
2023/06/24 01:00:13;;;;;;;0.20;0.20;;;13.00;96.80;;;;;;5045954;28;20052;-75
2023/06/24 01:02:39;;;;;;;0.50;0.47;;;12.90;99.90;;;;;;5045671;28;20045;-75
2023/06/24 01:05:06;;;;;;;0.88;0.57;;;12.80;91.40;;;;;;5045846;28;20175;-75
2023/06/24 01:07:35;;;;;;;0.47;0.35;;;12.80;94.10;;;;;;5045542;28;20045;-75
2023/06/24 01:10:05;;;;;;;0.40;0.35;;;12.80;99.90;;;;;;5045968;28;20080;-75
2023/06/24 01:12:33;;;;;;;0.95;0.30;;;12.70;99.90;;;;;;5027837;28;20079;-75
2023/06/24 01:14:59;;;;;;;0.40;0.38;;;12.70;95.50;;;;;;5045457;28;20482;-75
2023/06/24 01:17:47;;;;;;;5.57;2.67;;;12.60;13.10;;;;;;5045099;28;20048;-76
2023/06/24 01:20:27;;;;;;;0.75;0.30;;;12.60;1.00;;;;;;5045364;28;20064;-75
2023/06/24 01:23:43;;;;;;;0.95;0.63;;;12.60;1.00;;;;;;5044986;28;20067;-76
2023/06/24 01:26:33;;;;;;;0.30;0.30;;;12.60;1.00;;;;;;5002081;28;20060;-75
2023/06/24 01:29:35;;;;;;;0.00;0.00;;;12.60;1.00;;;;;;5045465;28;20056;-75
2023/06/24 01:32:17;;;;;;;0.13;0.13;;;12.60;1.00;;;;;;4982965;28;20477;-76
2023/06/24 01:34:57;;;;;;;0.20;0.20;;;12.50;1.00;;;;;;5039303;28;20462;-75
2023/06/24 01:37:32;;;;;;;1.35;0.88;;;12.50;1.00;;;;;;5045837;28;20098;-75
2023/06/24 01:40:09;;;;;;;0.75;0.40;;;12.50;1.00;;;;;;5045205;28;20068;-75
2023/06/24 01:42:38;;;;;;;0.10;0.10;;;12.40;1.00;;;;;;5045623;28;20083;-75
2023/06/24 01:45:09;;;;;;;0.98;0.63;;;12.40;1.00;;;;;;5045231;28;20102;-75
2023/06/24 01:47:36;;;;;;;1.05;0.30;;;12.40;1.00;;;;;;5045449;28;20403;-75
2023/06/24 01:50:03;;;;;;;0.98;0.88;;;12.40;1.00;;;;;;5027159;28;20044;-75
2023/06/24 01:52:30;;;;;;;0.28;0.28;;;12.40;1.00;;;;;;5045366;28;20044;-76
2023/06/24 01:54:58;;;;;;;1.90;0.75;;;12.30;1.00;;;;;;5045003;28;20044;-75
2023/06/24 01:57:25;;;;;;;0.00;0.00;;;12.30;1.00;;;;;;5044686;28;20045;-76
2023/06/24 01:59:54;;;;;;;0.55;0.20;;;12.30;1.00;;;;;;5044765;28;20052;-76
2023/06/24 02:02:21;;;;;;;0.57;0.52;;;12.30;1.00;;;;;;5044391;28;20049;-75
2023/06/24 02:04:50;;;;;;;0.98;0.85;;;12.30;1.00;;;;;;5044520;28;20044;-75
2023/06/24 02:07:18;;;;;;;2.38;1.45;;;12.30;1.00;;;;;;5044717;28;20511;-75
2023/06/24 02:09:45;;;;;;;1.13;0.50;;;12.30;1.00;;;;;;5044442;28;20495;-75
2023/06/24 02:12:12;;;;;;;0.47;0.47;;;12.30;1.00;;;;;;5026389;28;20072;-75
2023/06/24 02:14:39;;;;;;;0.43;0.43;;;12.30;1.00;;;;;;5041724;28;20037;-76
2023/06/24 02:17:08;;;;;;;0.30;0.30;;;12.30;1.00;;;;;;5025035;28;20041;-75
2023/06/24 02:19:35;;;;;;;0.43;0.30;;;12.30;1.00;;;;;;5032006;28;20057;-75
2023/06/24 02:22:02;;;;;;;0.88;0.80;;;12.40;1.00;;;;;;5044378;28;20572;-75
2023/06/24 02:24:29;;;;;;;0.68;0.60;;;12.50;39.70;;;;;;5044576;28;20045;-75
2023/06/24 02:26:58;;;;;;;0.65;0.65;;;12.50;95.50;;;;;;5044232;28;20067;-76
2023/06/24 02:29:27;;;;;;;1.85;1.65;;;12.40;99.90;;;;;;5044932;28;20044;-74
2023/06/24 02:31:53;;;;;;;0.22;0.22;;;12.40;99.90;;;;;;5044749;28;20044;-75
2023/06/24 02:34:20;;;;;;;0.30;0.30;;;12.40;99.90;;;;;;5043083;28;20044;-76
2023/06/24 02:36:45;;;;;;;0.08;0.08;;;12.40;99.90;;;;;;5044488;28;20056;-75
2023/06/24 02:39:11;;;;;;;1.08;0.98;;;12.30;99.90;;;;;;5044344;28;20052;-75
2023/06/24 02:41:37;;;;;;;0.32;0.32;;;12.30;99.90;;;;;;5044582;28;20076;-75
2023/06/24 02:44:02;;;;;;;0.47;0.35;;;12.30;99.90;;;;;;5044709;28;20095;-75
2023/06/24 02:46:30;;;;;;;1.98;0.22;;;12.30;99.90;;;;;;5044388;28;20106;-75
2023/06/24 02:48:57;;;;;;;0.68;0.65;;;12.30;99.90;;;;;;5044583;28;20475;-75
2023/06/24 02:51:24;;;;;;;4.15;1.70;;;12.20;99.90;;;;;;5044508;28;20048;-75
2023/06/24 02:53:50;;;;;;;1.05;0.60;;;12.20;99.90;;;;;;5043648;28;20056;-75
2023/06/24 02:56:20;;;;;;;0.38;0.13;;;12.20;99.90;;;;;;5043468;28;20048;-75
2023/06/24 02:58:47;;;;;;;0.95;0.47;;;12.20;99.90;;;;;;5038711;28;20056;-76
2023/06/24 03:01:13;;;;;;;0.13;0.13;;;12.20;99.90;;;;;;5022464;28;20123;-75
2023/06/24 03:03:40;;;;;;;0.43;0.43;;;12.20;99.90;;;;;;5023951;28;20096;-75
2023/06/24 03:06:06;;;;;;;1.15;0.35;;;12.20;99.90;;;;;;5022698;28;20061;-75
2023/06/24 03:08:32;;;;;;;4.90;1.10;;;12.20;99.90;;;;;;5024253;28;20108;-76
2023/06/24 03:10:58;;;;;;;0.10;0.10;;;12.20;99.90;;;;;;5025154;28;20041;-75
2023/06/24 03:13:24;;;;;;;1.25;0.52;;;12.20;99.90;;;;;;5025712;28;20099;-77
2023/06/24 03:15:50;;;;;;;0.95;0.85;;;12.30;99.90;;;;;;5025273;28;20507;-76
2023/06/24 03:18:17;;;;;;;0.40;0.40;;;12.30;99.90;;;;;;5025068;28;20136;-76
2023/06/24 03:20:43;;;;;;;1.95;0.60;;;12.30;99.90;;;;;;5025555;28;20140;-76
2023/06/24 03:23:09;;;;;;;1.17;1.08;;;12.40;99.90;;;;;;5025338;28;20121;-78
2023/06/24 03:25:35;;;;;;;1.85;1.38;;;12.40;99.90;;;;;;5024036;28;20045;-76
2023/06/24 03:28:03;;;;;;;0.88;0.40;;;12.50;99.90;;;;;;5024318;28;20541;-76
2023/06/24 03:30:29;;;;;;;0.47;0.38;;;12.40;99.90;;;;;;5023977;28;20053;-76
2023/06/24 03:32:55;;;;;;;0.52;0.25;;;12.50;99.90;;;;;;5024054;28;20140;-76
2023/06/24 03:35:22;;;;;;;1.70;1.50;;;12.50;99.90;;;;;;5024048;28;20041;-75
2023/06/24 03:37:48;;;;;;;1.15;1.05;;;12.50;99.90;;;;;;5023638;28;20053;-74
2023/06/24 03:40:14;;;;;;;2.10;1.25;;;12.50;99.90;;;;;;5023910;28;20132;-76
2023/06/24 03:42:39;;;;;;;6.35;1.45;;;12.50;99.90;;;;;;5023443;28;20046;-76
2023/06/24 03:45:05;;;;;;;1.52;0.98;;;12.60;99.90;;;;;;5025650;28;20080;-75
2023/06/24 03:47:31;;;;;;;2.50;0.35;;;12.70;99.90;;;;;;5027681;28;20045;-75
2023/06/24 03:49:57;;;;;;;6.72;1.55;;;12.70;99.90;;;;;;5067874;28;20460;-75
2023/06/24 03:52:22;;;;;;;4.25;0.70;;;12.80;99.90;;;;;;5067344;28;20046;-75
2023/06/24 03:54:48;;;;;;;1.40;1.27;;;12.80;99.90;;;;;;5067307;28;20041;-75
2023/06/24 03:57:14;;;;;;;0.52;0.52;;;12.90;99.90;;;;;;5067343;28;20480;-75
2023/06/24 03:59:39;;;;;;;1.40;1.30;;;12.90;99.90;;;;;;5067018;28;20045;-76
2023/06/24 04:02:08;;;;;;;1.77;1.05;;;13.00;99.90;;;;;;5067263;28;20053;-76
2023/06/24 04:04:35;;;;;;;1.17;1.05;;;13.00;99.90;;;;;;5067106;28;20052;-76
2023/06/24 04:07:01;;;;;;;0.70;0.70;;;13.10;99.90;;;;;;5066985;28;20037;-75
2023/06/24 04:09:26;;;;;;;1.27;0.90;;;13.10;99.90;;;;;;5066954;28;20044;-75
2023/06/24 04:11:52;;;;;;;0.95;0.82;;;13.10;99.90;;;;;;5067157;28;20056;-75
2023/06/24 04:14:18;;;;;;;0.98;0.50;;;13.10;99.90;;;;;;5066777;28;20043;-76
2023/06/24 04:16:43;;;;;;;2.10;1.17;;;13.20;99.90;;;;;;5066494;28;20441;-76
2023/06/24 04:19:09;;;;;;;1.48;0.88;;;13.20;99.90;;;;;;5066958;28;20052;-75
2023/06/24 04:21:35;;;;;;;0.43;0.32;;;13.20;99.90;;;;;;5066803;28;20098;-74
2023/06/24 04:24:00;;;;;;;0.10;0.10;;;13.30;99.90;;;;;;5066716;28;20086;-76
2023/06/24 04:26:26;;;;;;;1.63;0.77;;;13.40;99.90;;;;;;5066973;28;20072;-75
2023/06/24 04:28:52;;;;;;;1.35;0.93;;;13.50;99.90;;;;;;5066233;28;20044;-75
2023/06/24 04:31:17;;;;;;;1.17;0.38;;;13.60;99.90;;;;;;5066823;28;20562;-76
2023/06/24 04:33:43;;;;;;;1.05;0.65;;;14.10;99.90;;;;;;5066632;28;20044;-75
2023/06/24 04:36:09;;;;;;;0.40;0.40;;;14.40;99.90;;;;;;5066716;28;20047;-74
2023/06/24 04:38:34;;;;;;;1.17;0.57;;;14.60;99.90;;;;;;5066915;28;20173;-75
2023/06/24 04:41:00;;;;;;;0.20;0.20;;;14.80;99.90;;;;;;5066706;28;20048;-76
2023/06/24 04:43:27;;;;;;;0.47;0.43;;;15.00;99.90;;;;;;5066486;28;20044;-75
2023/06/24 04:45:55;;;;;;;1.45;0.82;;;15.10;99.90;;;;;;5066406;28;20048;-75
2023/06/24 04:48:24;;;;;;;0.38;0.38;;;15.10;34.00;;;;;;5066713;28;20056;-76
2023/06/24 04:50:50;;;;;;;1.60;1.50;;;15.40;1.00;;;;;;5066925;28;20414;-75
2023/06/24 04:53:15;;;;;;;0.30;0.30;;;15.80;1.00;;;;;;5065955;28;20048;-76
2023/06/24 04:55:41;;;;;;;0.50;0.50;;;16.70;99.90;;;;;;5066010;28;20417;-75
2023/06/24 04:58:07;;;;;;;0.35;0.22;;;17.70;99.90;;;;;;5066128;28;20048;-76
2023/06/24 05:00:32;;;;;;;0.43;0.43;;;18.60;1.00;;;;;;5065944;28;20063;-75
2023/06/24 05:02:58;;;;;;;1.42;1.00;;;19.40;42.50;;;;;;5066095;28;20036;-76
2023/06/24 05:05:24;;;;;;;0.93;0.63;;;20.10;1.00;;;;;;5064604;28;20381;-76
2023/06/24 05:07:49;;;;;;;0.10;0.10;;;20.80;99.90;;;;;;5065868;28;20044;-76
2023/06/24 05:10:15;;;;;;;0.65;0.63;;;21.40;1.00;;;;;;5065875;28;20094;-76
2023/06/24 05:12:41;;;;;;;4.00;2.08;;;21.90;85.40;;;;;;5065955;28;20461;-76
2023/06/24 05:15:07;;;;;;;0.20;0.20;;;22.30;1.00;;;;;;5065270;28;20047;-76
2023/06/24 05:17:33;;;;;;;1.45;0.68;;;22.30;1.00;;;;;;5065168;28;20055;-76
2023/06/24 05:19:58;;;;;;;1.25;0.93;;;22.50;1.00;;;;;;5065153;28;20048;-75
2023/06/24 05:22:24;;;;;;;1.20;0.98;;;22.70;1.00;;;;;;5065419;28;20049;-76
2023/06/24 05:24:50;;;;;;;0.60;0.38;;;23.00;99.90;;;;;;5065548;28;20554;-76
2023/06/24 05:27:15;;;;;;;1.08;0.85;;;23.30;99.90;;;;;;5065003;28;20108;-75
2023/06/24 05:29:41;;;;;;;0.38;0.38;;;23.50;99.90;;;;;;5065508;28;20076;-76
2023/06/24 05:32:07;;;;;;;0.75;0.63;;;23.70;99.90;;;;;;5065073;28;20116;-75
2023/06/24 05:34:34;;;;;;;0.57;0.50;;;24.10;99.90;;;;;;5065107;28;20048;-76
2023/06/24 05:37:01;;;;;;;1.33;0.90;;;24.10;99.90;;;;;;5065220;28;20413;-76
2023/06/24 05:39:26;;;;;;;0.52;0.47;;;24.10;99.90;;;;;;5065198;28;20474;-76
2023/06/24 05:41:52;;;;;;;0.45;0.45;;;24.20;99.90;;;;;;5065187;28;20087;-76
2023/06/24 05:44:18;;;;;;;0.20;0.10;;;24.30;99.90;;;;;;5065142;28;20136;-76
2023/06/24 05:46:45;;;;;;;0.43;0.40;;;24.40;99.90;;;;;;5065166;28;20040;-76
2023/06/24 05:49:10;;;;;;;2.17;1.38;;;24.50;99.90;;;;;;5064896;28;20048;-76
2023/06/24 05:51:37;;;;;;;1.80;1.00;;;24.70;99.90;;;;;;5064782;28;20047;-76
2023/06/24 05:54:03;;;;;;;0.90;0.57;;;24.80;99.90;;;;;;5064351;28;20072;-76
2023/06/24 05:56:29;;;;;;;0.30;0.25;;;24.90;99.90;;;;;;5064279;28;20598;-76
2023/06/24 05:58:55;;;;;;;0.43;0.30;;;25.30;99.90;;;;;;5064639;28;20106;-76
2023/06/24 06:01:21;;;;;;;0.50;0.40;;;25.70;99.90;;;;;;5063440;28;20638;-76
2023/06/24 06:03:47;;;;;;;0.73;0.43;;;25.80;99.90;;;;;;5049621;28;20041;-76
2023/06/24 06:06:12;;;;;;;3.22;0.90;;;25.90;99.90;;;;;;5043103;28;20045;-76
2023/06/24 06:08:38;;;;;;;0.38;0.38;;;26.10;99.90;;;;;;5041548;28;20094;-76
2023/06/24 06:11:04;;;;;;;1.33;0.52;;;26.40;99.90;;;;;;5042249;28;20123;-76
2023/06/24 06:13:30;;;;;;;0.63;0.52;;;26.40;99.90;;;;;;5041964;28;20037;-76
2023/06/24 06:15:56;;;;;;;0.20;0.20;;;26.60;99.90;;;;;;5042281;28;20041;-76
2023/06/24 06:18:22;;;;;;;0.10;0.10;;;26.70;99.90;;;;;;5042543;28;20106;-76
2023/06/24 06:20:48;;;;;;;0.65;0.47;;;27.00;99.90;;;;;;5042378;28;20140;-76
2023/06/24 06:23:15;;;;;;;0.98;0.45;;;27.10;99.90;;;;;;5042223;28;20140;-76
2023/06/24 06:25:41;;;;;;;0.35;0.30;;;27.40;99.90;;;;;;5042126;28;20090;-76
2023/06/24 06:28:07;;;;;;;0.63;0.40;;;27.70;99.90;;;;;;5042350;28;20044;-75
2023/06/24 06:30:32;;;;;;;0.85;0.60;;;27.90;65.70;;;;;;5042274;28;20473;-75
2023/06/24 06:32:58;;;;;;;0.30;0.30;;;27.90;1.00;;;;;;5042115;28;20048;-75
2023/06/24 06:35:24;;;;;;;0.47;0.28;;;27.80;1.00;;;;;;5041721;28;20040;-75
2023/06/24 06:37:54;;;;;;;1.35;0.75;;;27.80;1.00;;;;;;5041225;28;20041;-75
2023/06/24 06:40:22;;;;;;;0.38;0.38;;;27.90;1.00;;;;;;5039927;28;20123;-75
2023/06/24 06:42:48;;;;;;;0.52;0.50;;;28.00;1.00;;;;;;5039559;28;20044;-75
2023/06/24 06:45:14;;;;;;;0.40;0.40;;;27.90;1.00;;;;;;5039356;28;20049;-75
2023/06/24 06:47:40;;;;;;;0.73;0.50;;;28.20;1.00;;;;;;5039552;28;20069;-75
2023/06/24 06:50:06;;;;;;;0.50;0.38;;;28.40;1.00;;;;;;5039503;28;20425;-75
2023/06/24 06:52:32;;;;;;;0.52;0.30;;;28.70;1.00;;;;;;5039423;28;20425;-75
2023/06/24 06:54:58;;;;;;;1.88;1.17;;;29.00;1.00;;;;;;5039276;28;20502;-75
2023/06/24 06:57:23;;;;;;;4.78;1.27;;;29.00;1.00;;;;;;5039452;28;20532;-75
2023/06/24 06:59:50;;;;;;;0.55;0.47;;;28.50;99.90;;;;;;5039401;28;20116;-75
2023/06/24 07:02:17;;;;;;;1.45;0.93;;;27.70;99.90;;;;;;5039620;28;20106;-75
2023/06/24 07:04:42;;;;;;;0.63;0.63;;;27.20;99.90;;;;;;5039406;28;20055;-75
2023/06/24 07:07:08;;;;;;;2.67;0.57;;;26.90;99.90;;;;;;5038639;28;20045;-75
2023/06/24 07:09:34;;;;;;;0.15;0.15;;;26.70;99.90;;;;;;5038919;28;20036;-75
2023/06/24 07:12:00;;;;;;;1.50;0.80;;;26.90;99.90;;;;;;5038518;28;20465;-75
2023/06/24 07:14:25;;;;;;;3.03;1.27;;;27.50;99.90;;;;;;5038623;28;20088;-75
2023/06/24 07:16:51;;;;;;;1.30;1.20;;;27.90;99.90;;;;;;5039277;28;20180;-75
2023/06/24 07:19:17;;;;;;;2.08;1.13;;;28.30;99.90;;;;;;5039762;28;20057;-76
2023/06/24 07:21:43;;;;;;;0.98;0.82;;;28.50;1.00;;;;;;5043276;28;20117;-75
2023/06/24 07:24:09;;;;;;;0.40;0.40;;;28.60;1.00;;;;;;5043377;28;20044;-75
2023/06/24 07:26:35;;;;;;;1.85;1.13;;;28.60;99.90;;;;;;5043039;28;20063;-76
2023/06/24 07:29:01;;;;;;;1.15;1.02;;;28.70;99.90;;;;;;5043038;28;20084;-76
2023/06/24 07:31:26;;;;;;;2.92;1.20;;;28.20;99.90;;;;;;5043291;28;20040;-75
2023/06/24 07:33:52;;;;;;;1.58;0.90;;;28.00;99.90;;;;;;5042680;28;20048;-76
2023/06/24 07:36:18;;;;;;;1.45;0.90;;;27.70;99.90;;;;;;5041710;28;20064;-76
2023/06/24 07:38:44;;;;;;;1.02;0.75;;;27.50;99.90;;;;;;5042594;28;20131;-76
2023/06/24 07:41:10;;;;;;;0.45;0.22;;;27.50;99.90;;;;;;5043018;28;20123;-76
2023/06/24 07:43:35;;;;;;;9.73;2.17;;;27.50;99.90;;;;;;5042675;28;20076;-76
2023/06/24 07:46:02;;;;;;;3.25;0.77;;;27.40;99.90;;;;;;5042191;28;20506;-75
2023/06/24 07:48:28;;;;;;;0.95;0.82;;;27.40;99.90;;;;;;5042067;28;20119;-75
2023/06/24 07:50:54;;;;;;;0.55;0.52;;;27.20;99.90;;;;;;5042368;28;20045;-75
2023/06/24 07:53:19;;;;;;;3.80;1.00;;;27.20;99.90;;;;;;5041952;28;20098;-75
2023/06/24 07:55:45;;;;;;;1.13;0.77;;;27.20;99.90;;;;;;5042566;28;20052;-75
2023/06/24 07:58:11;;;;;;;0.22;0.22;;;27.60;99.90;;;;;;5042068;28;20291;-75
2023/06/24 08:00:37;;;;;;;2.10;1.60;;;28.00;99.90;;;;;;5042281;28;20049;-75
2023/06/24 08:03:03;;;;;;;0.98;0.50;;;28.40;99.90;;;;;;5041670;28;20037;-76
2023/06/24 08:05:29;;;;;;;0.45;0.43;;;28.60;99.90;;;;;;5042505;28;20081;-75
2023/06/24 08:07:54;;;;;;;0.77;0.65;;;28.80;99.90;;;;;;5042248;28;20099;-77
2023/06/24 08:10:20;;;;;;;0.50;0.50;;;28.80;99.90;;;;;;5041959;28;20419;-76
2023/06/24 08:12:46;;;;;;;0.70;0.57;;;29.10;99.90;;;;;;5042362;28;20044;-76
2023/06/24 08:15:12;;;;;;;0.10;0.08;;;29.70;99.90;;;;;;5041991;28;20044;-76
2023/06/24 08:17:37;;;;;;;0.75;0.50;;;30.10;99.90;;;;;;5042135;28;20065;-76
2023/06/24 08:20:04;;;;;;;0.98;0.45;;;30.40;99.90;;;;;;5041524;28;20061;-76
2023/06/24 08:22:30;;;;;;;2.08;0.73;;;30.40;99.90;;;;;;5040644;28;20085;-76
2023/06/24 08:24:55;;;;;;;0.28;0.20;;;30.20;99.90;;;;;;5041584;28;20072;-75
2023/06/24 08:27:21;;;;;;;0.30;0.30;;;30.20;99.90;;;;;;5041560;28;20041;-76
2023/06/24 08:29:50;;;;;;;0.63;0.63;;;30.30;99.90;;;;;;5041445;28;20552;-76
2023/06/24 08:32:15;;;;;;;0.32;0.30;;;31.10;99.90;;;;;;5041875;28;20049;-75
2023/06/24 08:34:41;;;;;;;0.10;0.10;;;31.00;99.90;;;;;;5041352;28;20403;-75
2023/06/24 08:37:07;;;;;;;0.90;0.47;;;31.10;99.90;;;;;;5041777;28;20502;-76
2023/06/24 08:39:32;;;;;;;0.55;0.40;;;31.10;99.90;;;;;;5041447;28;20060;-76
2023/06/24 08:41:59;;;;;;;2.38;0.85;;;31.20;99.90;;;;;;5041177;28;20514;-76
2023/06/24 08:44:24;;;;;;;0.45;0.32;;;31.30;99.90;;;;;;5041268;28;20462;-76
2023/06/24 08:46:50;;;;;;;1.42;0.75;;;31.50;99.90;;;;;;5041225;28;20045;-76
2023/06/24 08:49:22;;;;;;;1.02;0.77;;;31.60;99.90;;;;;;5041223;28;20412;-76
2023/06/24 08:51:54;;;;;;;0.75;0.63;;;31.70;99.90;;;;;;5041758;28;20191;-76
2023/06/24 08:54:21;;;;;;;0.52;0.45;;;31.70;99.90;;;;;;5041332;28;20491;-76
2023/06/24 08:56:46;;;;;;;0.13;0.10;;;31.30;99.90;;;;;;5041364;28;20052;-76
2023/06/24 08:59:12;;;;;;;0.57;0.50;;;31.10;99.90;;;;;;5041028;28;20407;-76
2023/06/24 09:01:38;;;;;;;1.75;0.65;;;31.20;97.50;;;;;;5040994;28;20542;-76
2023/06/24 09:04:04;;;;;;;0.63;0.63;;;31.00;97.80;;;;;;5041403;28;20056;-76
2023/06/24 09:06:31;;;;;;;0.45;0.25;;;30.90;96.70;;;;;;5040911;28;20055;-76
2023/06/24 09:08:57;;;;;;;0.55;0.32;;;30.70;81.30;;;;;;5041083;28;20052;-76
2023/06/24 09:11:24;;;;;;;3.58;1.40;;;30.80;55.40;;;;;;5041160;28;20045;-76
2023/06/24 09:14:00;;;;;;;0.28;0.20;;;31.30;98.50;;;;;;5023384;28;20128;-76
2023/06/24 09:16:26;;;;;;;1.25;0.77;;;32.40;98.20;;;;;;5040973;28;20084;-75
2023/06/24 09:18:53;;;;;;;3.40;0.98;;;32.80;99.30;;;;;;5040341;28;20100;-76
2023/06/24 09:21:26;;;;;;;0.73;0.40;;;32.70;82.60;;;;;;5040782;28;20060;-76
2023/06/24 09:23:56;;;;;;;0.50;0.43;;;32.30;65.20;;;;;;5040607;28;20045;-76
2023/06/24 09:26:25;;;;;;;0.22;0.17;;;32.20;57.30;;;;;;5040850;28;20052;-76
2023/06/24 09:28:51;;;;;;;0.00;0.00;;;32.30;71.70;;;;;;5040268;28;20037;-76
2023/06/24 09:31:17;;;;;;;0.20;0.20;;;32.70;78.80;;;;;;5040122;28;20052;-76
2023/06/24 09:33:44;;;;;;;0.20;0.20;;;33.30;62.90;;;;;;5039759;28;20045;-76
2023/06/24 09:36:14;;;;;;;1.17;0.60;;;33.90;66.70;;;;;;5040387;28;20067;-77
2023/06/24 09:38:42;;;;;;;1.73;0.57;;;34.20;20.60;;;;;;5040523;28;20627;-76
2023/06/24 09:41:08;;;;;;;1.65;0.52;;;34.30;8.30;;;;;;5040912;28;20041;-75
2023/06/24 09:43:39;;;;;;;0.32;0.32;;;33.70;1.00;;;;;;5043420;28;20045;-75
2023/06/24 09:46:06;;;;;;;0.20;0.20;;;33.80;1.00;;;;;;5044263;28;20396;-76
2023/06/24 09:48:35;;;;;;;6.32;0.82;;;34.30;1.00;;;;;;5043945;28;20068;-76
2023/06/24 09:51:03;;;;;;;0.55;0.50;;;34.30;1.00;;;;;;5040945;28;20044;-75
2023/06/24 09:53:34;;;;;;;0.30;0.30;;;34.40;1.00;;;;;;5039786;28;20743;-75
2023/06/24 09:56:02;;;;;;;0.57;0.50;;;34.40;1.00;;;;;;5043179;28;20041;-75
2023/06/24 09:58:35;;;;;;;0.22;0.22;;;34.40;1.00;;;;;;5043625;28;20053;-75
2023/06/24 10:01:05;;;;;;;0.52;0.40;;;34.20;1.00;;;;;;5043826;28;20468;-76
2023/06/24 10:03:34;;;;;;;0.38;0.35;;;34.30;1.00;;;;;;5041199;28;20041;-76
2023/06/24 10:06:04;;;;;;;1.33;0.95;;;34.10;1.00;;;;;;5021989;28;20053;-75
2023/06/24 10:08:31;;;;;;;1.05;0.93;;;33.90;1.00;;;;;;5041881;28;20555;-75
2023/06/24 10:10:57;;;;;;;0.85;0.63;;;33.50;1.00;;;;;;5039128;28;20402;-76
2023/06/24 10:13:23;;;;;;;0.45;0.25;;;33.20;1.00;;;;;;5039232;28;20049;-76
2023/06/24 10:15:49;;;;;;;0.73;0.20;;;33.10;1.00;;;;;;5039392;28;20044;-76
2023/06/24 10:18:35;;;;;;;0.10;0.10;;;33.00;1.00;;;;;;5041399;28;20053;-76
2023/06/24 10:21:01;;;;;;;1.70;0.70;;;32.80;1.00;;;;;;5043357;28;20056;-76
2023/06/24 10:23:41;;;;;;;2.95;0.93;;;32.70;1.00;;;;;;5042281;28;20053;-75
2023/06/24 10:26:22;;;;;;;0.35;0.32;;;32.30;1.00;;;;;;5042802;28;20080;-76
2023/06/24 10:29:06;;;;;;;0.40;0.40;;;32.30;1.00;;;;;;5039388;28;20045;-75
2023/06/24 10:31:41;;;;;;;0.52;0.38;;;32.30;1.00;;;;;;5039402;28;20046;-75
2023/06/24 10:34:31;;;;;;;0.38;0.35;;;32.30;1.00;;;;;;5039579;28;20487;-75
2023/06/24 10:37:01;;;;;;;0.55;0.43;;;32.50;1.00;;;;;;5039618;28;20094;-75
2023/06/24 10:39:48;;;;;;;0.10;0.10;;;32.70;1.00;;;;;;5039156;28;20095;-75
2023/06/24 10:42:31;;;;;;;0.43;0.30;;;32.70;1.00;;;;;;5039737;28;20459;-75
2023/06/24 10:45:00;;;;;;;0.08;0.08;;;33.10;1.00;;;;;;5022868;28;20052;-75
2023/06/24 10:47:28;;;;;;;1.60;0.52;;;33.00;1.00;;;;;;5042932;28;20055;-75
2023/06/24 10:49:54;;;;;;;0.22;0.20;;;32.90;1.00;;;;;;5042786;28;20036;-75
2023/06/24 10:52:24;;;;;;;0.13;0.13;;;32.20;99.90;;;;;;5042161;28;20423;-75
2023/06/24 10:54:51;;;;;;;0.10;0.10;;;31.70;99.90;;;;;;5040900;28;20643;-74
2023/06/24 10:57:23;;;;;;;0.32;0.32;;;31.70;99.90;;;;;;5042366;28;20158;-75
2023/06/24 10:59:49;;;;;;;1.85;0.82;;;32.00;99.90;;;;;;5041627;28;20088;-72
2023/06/24 11:02:16;;;;;;;0.40;0.35;;;31.70;99.90;;;;;;5042556;28;20492;-72
2023/06/24 11:04:44;;;;;;;1.20;0.88;;;31.50;99.90;;;;;;5042269;28;20061;-73
2023/06/24 11:07:10;;;;;;;0.35;0.30;;;30.90;99.90;;;;;;5042432;28;20044;-73
2023/06/24 11:09:36;;;;;;;0.75;0.38;;;30.50;99.90;;;;;;5043620;28;20099;-74
2023/06/24 11:12:05;;;;;;;0.40;0.38;;;30.30;99.90;;;;;;5043252;28;20515;-74
2023/06/24 11:14:33;;;;;;;0.22;0.22;;;30.20;99.90;;;;;;5042559;28;20059;-74
2023/06/24 11:17:04;;;;;;;3.42;0.57;;;30.40;99.90;;;;;;5041566;28;20057;-74
2023/06/24 11:19:34;;;;;;;0.50;0.43;;;30.70;99.90;;;;;;5041275;28;20057;-74
2023/06/24 11:22:03;;;;;;;1.00;0.47;;;30.90;99.90;;;;;;5041689;28;20412;-74
2023/06/24 11:24:28;;;;;;;0.75;0.57;;;31.20;99.90;;;;;;5041237;28;20048;-74
2023/06/24 11:26:55;;;;;;;0.20;0.17;;;31.90;99.90;;;;;;5041360;28;20045;-74
2023/06/24 11:29:21;;;;;;;1.00;0.45;;;32.50;1.00;;;;;;5041369;28;20044;-74
2023/06/24 11:31:48;;;;;;;0.10;0.08;;;32.60;99.90;;;;;;5041201;28;20446;-74
2023/06/24 11:34:13;;;;;;;0.68;0.57;;;33.20;99.90;;;;;;5023953;28;20128;-74
2023/06/24 11:36:39;;;;;;;0.63;0.20;;;33.70;99.90;;;;;;5041405;28;20056;-74
2023/06/24 11:39:04;;;;;;;0.55;0.43;;;34.40;99.90;;;;;;5041898;28;20045;-74
2023/06/24 11:41:30;;;;;;;0.10;0.10;;;34.70;99.90;;;;;;5041625;28;20052;-74
2023/06/24 11:43:58;;;;;;;0.73;0.68;;;35.20;99.90;;;;;;5041551;28;20377;-74
2023/06/24 11:46:28;;;;;;;1.75;0.65;;;35.80;99.90;;;;;;5041493;28;20155;-74
2023/06/24 11:49:07;;;;;;;1.55;0.65;;;36.20;99.90;;;;;;5041694;28;20154;-75
2023/06/24 11:51:34;;;;;;;0.10;0.10;;;36.40;99.90;;;;;;5041698;28;20049;-75
2023/06/24 11:54:05;;;;;;;0.93;0.73;;;36.50;99.90;;;;;;5041496;28;20048;-74
2023/06/24 11:56:41;;;;;;;0.52;0.45;;;36.30;99.90;;;;;;5041427;28;20032;-74
2023/06/24 11:59:26;;;;;;;0.00;0.00;;;36.70;99.90;;;;;;5041407;28;20123;-74
2023/06/24 12:01:57;;;;;;;0.40;0.40;;;37.10;99.90;;;;;;5041774;28;20060;-74
2023/06/24 12:04:33;;;;;;;0.47;0.40;;;37.60;99.90;;;;;;5041667;28;20052;-74
2023/06/24 12:06:59;;;;;;;0.25;0.20;;;37.80;99.90;;;;;;5044213;28;20044;-75
2023/06/24 12:09:26;;;;;;;1.48;0.57;;;37.70;99.90;;;;;;5044548;28;20045;-75
2023/06/24 12:11:52;;;;;;;0.30;0.20;;;38.20;99.90;;;;;;5045086;28;20487;-74
2023/06/24 12:14:18;;;;;;;0.45;0.38;;;38.20;99.90;;;;;;5044693;28;20037;-75
2023/06/24 12:16:44;;;;;;;0.47;0.47;;;38.40;99.90;;;;;;5044251;28;20523;-75
2023/06/24 12:19:10;;;;;;;0.65;0.52;;;38.30;99.90;;;;;;5043969;28;20060;-75
2023/06/24 12:21:35;;;;;;;2.47;0.60;;;38.50;99.90;;;;;;5044340;28;20136;-75
2023/06/24 12:24:04;;;;;;;2.75;0.75;;;38.80;99.90;;;;;;5044280;28;20492;-74
2023/06/24 12:26:31;;;;;;;1.13;0.52;;;38.80;99.90;;;;;;5044232;28;20099;-74
2023/06/24 12:28:57;;;;;;;0.68;0.38;;;38.40;99.90;;;;;;5044198;28;20201;-74
2023/06/24 12:31:25;;;;;;;1.45;0.47;;;38.60;99.90;;;;;;5044365;28;20036;-74
2023/06/24 12:33:52;;;;;;;0.30;0.22;;;38.70;99.90;;;;;;5044044;28;20044;-75
2023/06/24 12:36:18;;;;;;;1.35;0.75;;;37.90;99.90;;;;;;5044202;28;20076;-75
2023/06/24 12:38:44;;;;;;;0.47;0.30;;;37.00;99.90;;;;;;5044065;28;20462;-74
2023/06/24 12:41:10;;;;;;;0.28;0.28;;;36.40;99.90;;;;;;5044390;28;20120;-74
2023/06/24 12:43:35;;;;;;;0.20;0.20;;;35.60;99.90;;;;;;5044153;28;20044;-74
2023/06/24 12:46:01;;;;;;;1.35;0.65;;;34.90;99.90;;;;;;5044372;28;20041;-74
2023/06/24 12:48:26;;;;;;;0.47;0.43;;;35.30;99.90;;;;;;5043947;28;20537;-74
2023/06/24 12:50:55;;;;;;;0.50;0.45;;;36.30;99.90;;;;;;5044097;28;20519;-75
2023/06/24 12:53:21;;;;;;;2.53;1.17;;;37.50;99.90;;;;;;5044295;28;20052;-74